sensor_id;sensor_type;location;lat;lon;timestamp;temperature;humidity
3818;DHT22;1924;48.078;11.516;2023-04-15T04:02:39;6.10;99.90
3818;DHT22;1924;48.078;11.516;2023-04-15T04:05:06;6.10;99.90
3818;DHT22;1924;48.078;11.516;2023-04-15T04:07:33;6.10;99.90
3818;DHT22;1924;48.078;11.516;2023-04-15T04:10:00;6.10;99.90
3818;DHT22;1924;48.078;11.516;2023-04-15T04:12:28;6.10;99.90
3818;DHT22;1924;48.078;11.516;2023-04-15T04:14:55;6.00;99.90
3818;DHT22;1924;48.078;11.516;2023-04-15T04:17:21;6.10;99.90
3818;DHT22;1924;48.078;11.516;2023-04-15T04:19:49;6.10;99.90
3818;DHT22;1924;48.078;11.516;2023-04-15T04:22:16;6.10;99.90
3818;DHT22;1924;48.078;11.516;2023-04-15T04:24:43;6.10;99.90
3818;DHT22;1924;48.078;11.516;2023-04-15T04:27:10;6.10;99.90
3818;DHT22;1924;48.078;11.516;2023-04-15T04:29:36;6.00;99.90
3818;DHT22;1924;48.078;11.516;2023-04-15T04:32:03;6.10;99.90
3818;DHT22;1924;48.078;11.516;2023-04-15T04:34:30;6.10;99.90
3818;DHT22;1924;48.078;11.516;2023-04-15T04:36:58;6.20;99.90
3818;DHT22;1924;48.078;11.516;2023-04-15T04:39:25;6.10;99.90
3818;DHT22;1924;48.078;11.516;2023-04-15T04:41:51;6.10;99.90
3818;DHT22;1924;48.078;11.516;2023-04-15T04:44:18;6.20;99.90
3818;DHT22;1924;48.078;11.516;2023-04-15T04:46:45;6.20;99.90
3818;DHT22;1924;48.078;11.516;2023-04-15T04:49:12;6.10;99.90
3818;DHT22;1924;48.078;11.516;2023-04-15T04:51:38;6.20;99.90
3818;DHT22;1924;48.078;11.516;2023-04-15T04:54:07;6.20;99.90
3818;DHT22;1924;48.078;11.516;2023-04-15T04:56:34;6.20;99.90
3818;DHT22;1924;48.078;11.516;2023-04-15T04:59:00;6.20;99.90
3818;DHT22;1924;48.078;11.516;2023-04-15T05:01:27;6.30;99.90
3818;DHT22;1924;48.078;11.516;2023-04-15T05:03:54;6.30;99.90
3818;DHT22;1924;48.078;11.516;2023-04-15T05:06:21;6.30;99.90
3818;DHT22;1924;48.078;11.516;2023-04-15T05:08:48;6.20;99.90
3818;DHT22;1924;48.078;11.516;2023-04-15T05:11:16;6.30;99.90
3818;DHT22;1924;48.078;11.516;2023-04-15T05:13:43;6.30;99.90
3818;DHT22;1924;48.078;11.516;2023-04-15T05:16:10;6.20;99.90
3818;DHT22;1924;48.078;11.516;2023-04-15T05:18:37;6.30;99.90
3818;DHT22;1924;48.078;11.516;2023-04-15T05:21:04;6.30;99.90
3818;DHT22;1924;48.078;11.516;2023-04-15T05:23:31;6.30;99.90
3818;DHT22;1924;48.078;11.516;2023-04-15T05:25:58;6.40;99.90
3818;DHT22;1924;48.078;11.516;2023-04-15T05:28:26;6.30;99.90
3818;DHT22;1924;48.078;11.516;2023-04-15T05:30:53;6.40;99.90
3818;DHT22;1924;48.078;11.516;2023-04-15T05:33:20;6.30;99.90
3818;DHT22;1924;48.078;11.516;2023-04-15T05:35:47;6.40;99.90
3818;DHT22;1924;48.078;11.516;2023-04-15T05:38:14;6.40;99.90
3818;DHT22;1924;48.078;11.516;2023-04-15T05:40:41;6.40;99.90
3818;DHT22;1924;48.078;11.516;2023-04-15T05:43:08;6.40;99.90
3818;DHT22;1924;48.078;11.516;2023-04-15T05:45:36;6.40;99.90
3818;DHT22;1924;48.078;11.516;2023-04-15T05:48:03;6.40;99.90
3818;DHT22;1924;48.078;11.516;2023-04-15T05:50:30;6.40;99.90
3818;DHT22;1924;48.078;11.516;2023-04-15T05:52:56;6.50;99.90
3818;DHT22;1924;48.078;11.516;2023-04-15T05:55:23;6.40;99.90
3818;DHT22;1924;48.078;11.516;2023-04-15T05:57:50;6.40;99.90
3818;DHT22;1924;48.078;11.516;2023-04-15T06:00:17;6.40;99.90
3818;DHT22;1924;48.078;11.516;2023-04-15T06:02:46;6.40;99.90
3818;DHT22;1924;48.078;11.516;2023-04-15T06:05:13;6.40;99.90
3818;DHT22;1924;48.078;11.516;2023-04-15T06:07:39;6.50;99.90
3818;DHT22;1924;48.078;11.516;2023-04-15T06:10:09;6.60;99.90
3818;DHT22;1924;48.078;11.516;2023-04-15T06:12:35;6.70;99.90
3818;DHT22;1924;48.078;11.516;2023-04-15T06:15:03;6.70;99.90
3818;DHT22;1924;48.078;11.516;2023-04-15T06:17:31;6.70;99.90
3818;DHT22;1924;48.078;11.516;2023-04-15T06:19:59;6.70;99.90
3818;DHT22;1924;48.078;11.516;2023-04-15T06:22:25;6.70;99.90
3818;DHT22;1924;48.078;11.516;2023-04-15T06:24:53;6.70;99.90
3818;DHT22;1924;48.078;11.516;2023-04-15T06:27:20;6.60;99.90
3818;DHT22;1924;48.078;11.516;2023-04-15T06:29:47;6.70;99.90
3818;DHT22;1924;48.078;11.516;2023-04-15T06:32:14;6.60;99.90
3818;DHT22;1924;48.078;11.516;2023-04-15T06:34:40;6.60;99.90
3818;DHT22;1924;48.078;11.516;2023-04-15T06:37:09;6.70;99.90
3818;DHT22;1924;48.078;11.516;2023-04-15T06:39:40;6.70;99.90
3818;DHT22;1924;48.078;11.516;2023-04-15T06:42:07;6.70;99.90
3818;DHT22;1924;48.078;11.516;2023-04-15T06:44:34;6.70;99.90
3818;DHT22;1924;48.078;11.516;2023-04-15T06:47:01;6.70;99.90
3818;DHT22;1924;48.078;11.516;2023-04-15T06:49:28;6.80;99.90
3818;DHT22;1924;48.078;11.516;2023-04-15T06:51:55;6.90;99.90
3818;DHT22;1924;48.078;11.516;2023-04-15T06:54:23;7.00;99.90
3818;DHT22;1924;48.078;11.516;2023-04-15T06:56:50;7.00;99.90
3818;DHT22;1924;48.078;11.516;2023-04-15T06:59:17;7.10;99.90
3818;DHT22;1924;48.078;11.516;2023-04-15T07:01:44;7.10;99.90
3818;DHT22;1924;48.078;11.516;2023-04-15T07:04:11;7.30;99.90
3818;DHT22;1924;48.078;11.516;2023-04-15T07:06:38;7.30;99.90
3818;DHT22;1924;48.078;11.516;2023-04-15T07:09:04;7.30;99.90
3818;DHT22;1924;48.078;11.516;2023-04-15T07:11:33;7.30;99.90
3818;DHT22;1924;48.078;11.516;2023-04-15T07:14:00;7.40;99.90
3818;DHT22;1924;48.078;11.516;2023-04-15T07:16:28;7.50;99.90
3818;DHT22;1924;48.078;11.516;2023-04-15T07:18:55;7.50;99.90
3818;DHT22;1924;48.078;11.516;2023-04-15T07:21:23;7.50;99.90
3818;DHT22;1924;48.078;11.516;2023-04-15T07:23:50;7.60;99.90
3818;DHT22;1924;48.078;11.516;2023-04-15T07:26:16;7.70;99.90
3818;DHT22;1924;48.078;11.516;2023-04-15T07:28:44;7.70;99.90
3818;DHT22;1924;48.078;11.516;2023-04-15T07:33:37;8.00;99.90
3818;DHT22;1924;48.078;11.516;2023-04-15T07:36:04;7.90;99.90
3818;DHT22;1924;48.078;11.516;2023-04-15T07:38:31;7.90;99.90
3818;DHT22;1924;48.078;11.516;2023-04-15T07:40:58;8.00;99.90
3818;DHT22;1924;48.078;11.516;2023-04-15T07:43:24;8.20;99.90
3818;DHT22;1924;48.078;11.516;2023-04-15T07:45:53;8.30;99.90
3818;DHT22;1924;48.078;11.516;2023-04-15T07:48:19;8.40;99.90
3818;DHT22;1924;48.078;11.516;2023-04-15T07:50:46;8.60;99.90
3818;DHT22;1924;48.078;11.516;2023-04-15T07:53:13;8.70;99.90
3818;DHT22;1924;48.078;11.516;2023-04-15T07:55:40;8.80;99.90
3818;DHT22;1924;48.078;11.516;2023-04-15T07:58:07;8.80;99.90
3818;DHT22;1924;48.078;11.516;2023-04-15T08:00:34;8.90;99.90
3818;DHT22;1924;48.078;11.516;2023-04-15T08:03:02;8.70;99.90
3818;DHT22;1924;48.078;11.516;2023-04-15T08:05:28;8.80;99.90
3818;DHT22;1924;48.078;11.516;2023-04-15T08:07:55;8.90;99.90
3818;DHT22;1924;48.078;11.516;2023-04-15T08:10:23;9.00;99.90
3818;DHT22;1924;48.078;11.516;2023-04-15T08:12:49;9.10;99.90
3818;DHT22;1924;48.078;11.516;2023-04-15T08:15:18;9.40;99.90
3818;DHT22;1924;48.078;11.516;2023-04-15T08:17:45;9.80;99.90
3818;DHT22;1924;48.078;11.516;2023-04-15T08:20:14;10.00;99.90
3818;DHT22;1924;48.078;11.516;2023-04-15T08:22:40;10.10;99.90
3818;DHT22;1924;48.078;11.516;2023-04-15T08:25:08;10.00;99.40
3818;DHT22;1924;48.078;11.516;2023-04-15T08:27:35;10.00;98.20
3818;DHT22;1924;48.078;11.516;2023-04-15T08:30:02;10.10;98.80
3818;DHT22;1924;48.078;11.516;2023-04-15T08:32:29;10.00;98.50
3818;DHT22;1924;48.078;11.516;2023-04-15T08:34:55;9.90;98.50
3818;DHT22;1924;48.078;11.516;2023-04-15T08:39:59;9.70;99.90
3818;DHT22;1924;48.078;11.516;2023-04-15T08:42:30;9.80;99.80
3818;DHT22;1924;48.078;11.516;2023-04-15T08:44:59;9.90;99.10
3818;DHT22;1924;48.078;11.516;2023-04-15T08:47:29;10.00;99.10
3818;DHT22;1924;48.078;11.516;2023-04-15T08:49:57;9.80;99.60
3818;DHT22;1924;48.078;11.516;2023-04-15T08:52:25;9.70;98.20
3818;DHT22;1924;48.078;11.516;2023-04-15T08:57:30;9.60;98.70
3818;DHT22;1924;48.078;11.516;2023-04-15T08:59:58;9.40;98.40
3818;DHT22;1924;48.078;11.516;2023-04-15T09:02:30;9.40;98.80
3818;DHT22;1924;48.078;11.516;2023-04-15T09:04:57;9.30;99.00
3818;DHT22;1924;48.078;11.516;2023-04-15T09:07:28;9.20;98.20
3818;DHT22;1924;48.078;11.516;2023-04-15T09:12:34;9.00;98.70
3818;DHT22;1924;48.078;11.516;2023-04-15T09:15:02;9.10;99.70
3818;DHT22;1924;48.078;11.516;2023-04-15T09:20:09;9.30;99.60
3818;DHT22;1924;48.078;11.516;2023-04-15T09:22:37;9.30;99.90
3818;DHT22;1924;48.078;11.516;2023-04-15T09:25:24;9.50;99.90
3818;DHT22;1924;48.078;11.516;2023-04-15T09:27:54;9.50;97.80
3818;DHT22;1924;48.078;11.516;2023-04-15T09:38:21;9.90;97.60
3818;DHT22;1924;48.078;11.516;2023-04-15T09:43:36;10.00;97.20
3818;DHT22;1924;48.078;11.516;2023-04-15T09:46:04;10.00;96.40
3818;DHT22;1924;48.078;11.516;2023-04-15T09:48:31;10.00;97.20
3818;DHT22;1924;48.078;11.516;2023-04-15T09:50:59;9.90;98.50
3818;DHT22;1924;48.078;11.516;2023-04-15T09:53:26;10.10;97.70
3818;DHT22;1924;48.078;11.516;2023-04-15T09:55:54;10.20;98.20
3818;DHT22;1924;48.078;11.516;2023-04-15T09:58:25;10.30;97.70
3818;DHT22;1924;48.078;11.516;2023-04-15T10:00:55;10.50;97.40
3818;DHT22;1924;48.078;11.516;2023-04-15T10:03:24;10.50;96.80
3818;DHT22;1924;48.078;11.516;2023-04-15T10:05:53;10.40;95.60
3818;DHT22;1924;48.078;11.516;2023-04-15T10:08:22;10.40;96.30
3818;DHT22;1924;48.078;11.516;2023-04-15T10:10:50;10.40;96.70
3818;DHT22;1924;48.078;11.516;2023-04-15T10:13:18;10.30;95.00
3818;DHT22;1924;48.078;11.516;2023-04-15T10:15:56;10.20;94.40
3818;DHT22;1924;48.078;11.516;2023-04-15T10:18:26;10.10;95.20
3818;DHT22;1924;48.078;11.516;2023-04-15T10:20:53;10.20;94.70
3818;DHT22;1924;48.078;11.516;2023-04-15T10:23:21;10.20;94.30
3818;DHT22;1924;48.078;11.516;2023-04-15T10:25:51;10.10;95.10
3818;DHT22;1924;48.078;11.516;2023-04-15T10:28:19;10.10;95.40
3818;DHT22;1924;48.078;11.516;2023-04-15T10:30:47;10.20;95.00
3818;DHT22;1924;48.078;11.516;2023-04-15T10:35:44;10.20;95.60
3818;DHT22;1924;48.078;11.516;2023-04-15T10:38:36;10.20;95.40
3818;DHT22;1924;48.078;11.516;2023-04-15T10:41:14;10.30;95.30
3818;DHT22;1924;48.078;11.516;2023-04-15T10:46:18;10.40;94.00
3818;DHT22;1924;48.078;11.516;2023-04-15T10:48:47;10.30;94.50
3818;DHT22;1924;48.078;11.516;2023-04-15T10:51:16;10.30;94.60
3818;DHT22;1924;48.078;11.516;2023-04-15T10:53:56;10.30;94.70
3818;DHT22;1924;48.078;11.516;2023-04-15T10:56:23;10.40;94.70
3818;DHT22;1924;48.078;11.516;2023-04-15T10:58:49;10.30;94.20
3818;DHT22;1924;48.078;11.516;2023-04-15T11:01:18;10.40;94.80
3818;DHT22;1924;48.078;11.516;2023-04-15T11:03:45;10.50;94.20
3818;DHT22;1924;48.078;11.516;2023-04-15T11:06:15;10.50;94.00
3818;DHT22;1924;48.078;11.516;2023-04-15T11:08:59;10.60;94.50
3818;DHT22;1924;48.078;11.516;2023-04-15T11:12:03;10.60;94.00
3818;DHT22;1924;48.078;11.516;2023-04-15T11:14:36;10.50;95.80
3818;DHT22;1924;48.078;11.516;2023-04-15T11:17:04;10.50;94.70
3818;DHT22;1924;48.078;11.516;2023-04-15T11:19:35;10.50;94.60
3818;DHT22;1924;48.078;11.516;2023-04-15T11:22:08;10.60;94.00
3818;DHT22;1924;48.078;11.516;2023-04-15T11:24:35;10.50;93.40
3818;DHT22;1924;48.078;11.516;2023-04-15T11:27:02;10.40;93.20
3818;DHT22;1924;48.078;11.516;2023-04-15T11:32:05;10.10;93.60
3818;DHT22;1924;48.078;11.516;2023-04-15T11:34:32;10.00;94.00
3818;DHT22;1924;48.078;11.516;2023-04-15T11:44:40;9.60;96.30
3818;DHT22;1924;48.078;11.516;2023-04-15T11:47:21;9.70;95.80
3818;DHT22;1924;48.078;11.516;2023-04-15T11:49:48;9.60;95.10
3818;DHT22;1924;48.078;11.516;2023-04-15T11:52:16;9.80;95.80
3818;DHT22;1924;48.078;11.516;2023-04-15T11:54:42;9.90;95.90
3818;DHT22;1924;48.078;11.516;2023-04-15T11:57:09;9.90;95.60
3818;DHT22;1924;48.078;11.516;2023-04-15T11:59:42;9.80;96.00
3818;DHT22;1924;48.078;11.516;2023-04-15T12:02:11;9.80;96.40
3818;DHT22;1924;48.078;11.516;2023-04-15T12:04:38;9.80;96.10
3818;DHT22;1924;48.078;11.516;2023-04-15T12:07:06;9.70;97.00
3818;DHT22;1924;48.078;11.516;2023-04-15T12:09:37;9.70;97.20
3818;DHT22;1924;48.078;11.516;2023-04-15T12:14:40;9.50;96.90
3818;DHT22;1924;48.078;11.516;2023-04-15T12:19:36;9.50;97.30
3818;DHT22;1924;48.078;11.516;2023-04-15T12:22:05;9.50;97.50
3818;DHT22;1924;48.078;11.516;2023-04-15T12:24:32;9.40;97.80
3818;DHT22;1924;48.078;11.516;2023-04-15T12:27:02;9.40;98.50
3818;DHT22;1924;48.078;11.516;2023-04-15T12:29:29;9.30;98.50
3818;DHT22;1924;48.078;11.516;2023-04-15T12:31:58;9.20;98.10
3818;DHT22;1924;48.078;11.516;2023-04-15T12:34:26;9.30;99.50
3818;DHT22;1924;48.078;11.516;2023-04-15T12:36:55;9.30;98.60
3818;DHT22;1924;48.078;11.516;2023-04-15T12:39:23;9.40;99.20
3818;DHT22;1924;48.078;11.516;2023-04-15T12:41:50;9.20;98.10
3818;DHT22;1924;48.078;11.516;2023-04-15T12:44:17;9.30;99.30
3818;DHT22;1924;48.078;11.516;2023-04-15T12:46:44;9.30;99.90
3818;DHT22;1924;48.078;11.516;2023-04-15T12:49:11;9.40;99.90
3818;DHT22;1924;48.078;11.516;2023-04-15T12:51:39;9.50;99.10
3818;DHT22;1924;48.078;11.516;2023-04-15T12:54:07;9.60;98.90
3818;DHT22;1924;48.078;11.516;2023-04-15T12:56:33;9.60;99.10
3818;DHT22;1924;48.078;11.516;2023-04-15T12:59:02;9.80;98.50
3818;DHT22;1924;48.078;11.516;2023-04-15T13:01:29;10.00;97.90
3818;DHT22;1924;48.078;11.516;2023-04-15T13:03:56;10.00;96.90
3818;DHT22;1924;48.078;11.516;2023-04-15T13:06:22;10.10;97.10
3818;DHT22;1924;48.078;11.516;2023-04-15T13:08:49;10.20;96.70
3818;DHT22;1924;48.078;11.516;2023-04-15T13:16:30;9.90;95.70
3818;DHT22;1924;48.078;11.516;2023-04-15T13:18:57;9.80;96.60
3818;DHT22;1924;48.078;11.516;2023-04-15T13:21:25;9.80;95.70
3818;DHT22;1924;48.078;11.516;2023-04-15T13:26:20;9.70;96.10
3818;DHT22;1924;48.078;11.516;2023-04-15T13:28:53;9.70;96.10
3818;DHT22;1924;48.078;11.516;2023-04-15T13:31:19;9.60;95.50
3818;DHT22;1924;48.078;11.516;2023-04-15T13:33:51;9.70;96.50
3818;DHT22;1924;48.078;11.516;2023-04-15T13:36:18;9.70;96.10
3818;DHT22;1924;48.078;11.516;2023-04-15T13:38:45;9.80;96.60
3818;DHT22;1924;48.078;11.516;2023-04-15T13:43:38;9.80;95.40
3818;DHT22;1924;48.078;11.516;2023-04-15T13:48:43;9.80;94.40
3818;DHT22;1924;48.078;11.516;2023-04-15T13:51:13;9.70;93.00
3818;DHT22;1924;48.078;11.516;2023-04-15T13:53:40;9.70;93.50
3818;DHT22;1924;48.078;11.516;2023-04-15T13:56:07;9.60;93.60
3818;DHT22;1924;48.078;11.516;2023-04-15T13:58:35;9.70;94.30
3818;DHT22;1924;48.078;11.516;2023-04-15T14:01:02;9.40;94.90
3818;DHT22;1924;48.078;11.516;2023-04-15T14:05:57;9.20;96.50
3818;DHT22;1924;48.078;11.516;2023-04-15T14:16:07;9.10;98.40
3818;DHT22;1924;48.078;11.516;2023-04-15T14:23:34;9.30;97.80
3818;DHT22;1924;48.078;11.516;2023-04-15T14:26:00;9.40;97.50
3818;DHT22;1924;48.078;11.516;2023-04-15T14:28:27;9.50;98.00
3818;DHT22;1924;48.078;11.516;2023-04-15T14:30:54;9.60;97.50
3818;DHT22;1924;48.078;11.516;2023-04-15T14:33:23;9.50;97.00
3818;DHT22;1924;48.078;11.516;2023-04-15T14:35:51;9.60;96.80
3818;DHT22;1924;48.078;11.516;2023-04-15T14:43:19;9.40;95.10
3818;DHT22;1924;48.078;11.516;2023-04-15T14:45:47;9.50;96.40
3818;DHT22;1924;48.078;11.516;2023-04-15T14:50:50;9.70;94.40
3818;DHT22;1924;48.078;11.516;2023-04-15T14:53:17;9.80;94.40
3818;DHT22;1924;48.078;11.516;2023-04-15T14:55:44;9.80;94.40
3818;DHT22;1924;48.078;11.516;2023-04-15T14:58:18;9.80;95.30
3818;DHT22;1924;48.078;11.516;2023-04-15T15:00:45;9.80;95.00
3818;DHT22;1924;48.078;11.516;2023-04-15T15:03:14;9.80;94.20
3818;DHT22;1924;48.078;11.516;2023-04-15T15:05:43;9.80;94.10
3818;DHT22;1924;48.078;11.516;2023-04-15T15:10:39;9.70;94.20
3818;DHT22;1924;48.078;11.516;2023-04-15T15:13:07;9.80;94.10
3818;DHT22;1924;48.078;11.516;2023-04-15T15:33:23;8.60;97.60
3818;DHT22;1924;48.078;11.516;2023-04-15T16:10:04;8.30;99.90
3818;DHT22;1924;48.078;11.516;2023-04-15T16:12:30;8.30;99.90
3818;DHT22;1924;48.078;11.516;2023-04-15T16:14:57;8.30;99.90
3818;DHT22;1924;48.078;11.516;2023-04-15T16:22:27;8.30;99.90
3818;DHT22;1924;48.078;11.516;2023-04-15T16:31:11;8.20;99.90
3818;DHT22;1924;48.078;11.516;2023-04-15T16:33:38;8.20;99.90
3818;DHT22;1924;48.078;11.516;2023-04-15T16:36:05;8.10;99.90
3818;DHT22;1924;48.078;11.516;2023-04-15T16:38:32;8.10;99.90
3818;DHT22;1924;48.078;11.516;2023-04-15T16:40:59;8.10;99.90
3818;DHT22;1924;48.078;11.516;2023-04-15T16:43:27;8.20;99.90
3818;DHT22;1924;48.078;11.516;2023-04-15T16:45:54;8.10;99.90
3818;DHT22;1924;48.078;11.516;2023-04-15T16:48:22;8.10;99.90
3818;DHT22;1924;48.078;11.516;2023-04-15T16:50:48;8.00;99.90
3818;DHT22;1924;48.078;11.516;2023-04-15T16:53:15;8.00;99.90
3818;DHT22;1924;48.078;11.516;2023-04-15T16:55:42;8.00;99.90
3818;DHT22;1924;48.078;11.516;2023-04-15T16:58:09;8.00;99.90
3818;DHT22;1924;48.078;11.516;2023-04-15T17:00:35;7.90;99.90
3818;DHT22;1924;48.078;11.516;2023-04-15T17:03:05;8.00;99.90
3818;DHT22;1924;48.078;11.516;2023-04-15T17:05:33;8.00;99.90
3818;DHT22;1924;48.078;11.516;2023-04-15T17:08:00;7.80;99.90
3818;DHT22;1924;48.078;11.516;2023-04-15T17:10:27;7.70;99.90
3818;DHT22;1924;48.078;11.516;2023-04-15T17:15:29;7.60;99.90
3818;DHT22;1924;48.078;11.516;2023-04-15T17:17:56;7.40;99.90
3818;DHT22;1924;48.078;11.516;2023-04-15T17:20:23;7.30;99.90
3818;DHT22;1924;48.078;11.516;2023-04-15T17:22:52;7.40;99.90
3818;DHT22;1924;48.078;11.516;2023-04-15T17:25:19;7.30;99.90
3818;DHT22;1924;48.078;11.516;2023-04-15T17:27:46;7.30;99.90
3818;DHT22;1924;48.078;11.516;2023-04-15T17:30:13;7.30;99.90
3818;DHT22;1924;48.078;11.516;2023-04-15T17:32:40;7.40;99.90
3818;DHT22;1924;48.078;11.516;2023-04-15T17:35:07;7.30;99.90
3818;DHT22;1924;48.078;11.516;2023-04-15T17:40:08;7.30;99.90
3818;DHT22;1924;48.078;11.516;2023-04-15T17:42:35;7.50;99.90
3818;DHT22;1924;48.078;11.516;2023-04-15T17:45:02;7.50;99.90
3818;DHT22;1924;48.078;11.516;2023-04-15T17:47:28;7.40;99.90
3818;DHT22;1924;48.078;11.516;2023-04-15T17:49:55;7.40;99.90
3818;DHT22;1924;48.078;11.516;2023-04-15T17:52:22;7.40;99.90
3818;DHT22;1924;48.078;11.516;2023-04-15T17:54:48;7.30;99.90
3818;DHT22;1924;48.078;11.516;2023-04-15T17:57:16;7.30;99.90
3818;DHT22;1924;48.078;11.516;2023-04-15T17:59:43;7.20;99.90
3818;DHT22;1924;48.078;11.516;2023-04-15T18:02:12;7.10;99.90
3818;DHT22;1924;48.078;11.516;2023-04-15T18:04:39;7.10;99.90
3818;DHT22;1924;48.078;11.516;2023-04-15T18:07:05;7.10;99.90
3818;DHT22;1924;48.078;11.516;2023-04-15T18:09:35;7.20;99.90
3818;DHT22;1924;48.078;11.516;2023-04-15T18:12:02;7.20;99.90
3818;DHT22;1924;48.078;11.516;2023-04-15T18:14:30;7.30;99.90
3818;DHT22;1924;48.078;11.516;2023-04-15T18:16:56;7.20;99.90
3818;DHT22;1924;48.078;11.516;2023-04-15T18:19:23;7.10;99.90
3818;DHT22;1924;48.078;11.516;2023-04-15T18:21:50;7.10;99.90
3818;DHT22;1924;48.078;11.516;2023-04-15T18:24:17;7.20;99.90
3818;DHT22;1924;48.078;11.516;2023-04-15T18:26:44;7.20;99.90
3818;DHT22;1924;48.078;11.516;2023-04-15T18:29:10;7.10;99.90
3818;DHT22;1924;48.078;11.516;2023-04-15T18:31:38;7.10;99.90
3818;DHT22;1924;48.078;11.516;2023-04-15T18:34:05;7.10;99.90
3818;DHT22;1924;48.078;11.516;2023-04-15T18:36:33;7.00;99.90
3818;DHT22;1924;48.078;11.516;2023-04-15T18:38:59;7.00;99.90
3818;DHT22;1924;48.078;11.516;2023-04-15T18:41:26;6.90;99.90
3818;DHT22;1924;48.078;11.516;2023-04-15T18:43:53;6.90;99.90
3818;DHT22;1924;48.078;11.516;2023-04-15T18:46:20;6.90;99.90
3818;DHT22;1924;48.078;11.516;2023-04-15T18:48:49;6.90;99.90
3818;DHT22;1924;48.078;11.516;2023-04-15T18:51:16;6.80;99.90
3818;DHT22;1924;48.078;11.516;2023-04-15T18:53:42;6.90;99.90
3818;DHT22;1924;48.078;11.516;2023-04-15T18:56:09;6.90;99.90
3818;DHT22;1924;48.078;11.516;2023-04-15T18:58:39;6.90;99.90
3818;DHT22;1924;48.078;11.516;2023-04-15T19:01:06;6.90;99.90
3818;DHT22;1924;48.078;11.516;2023-04-15T19:03:33;6.90;99.90
3818;DHT22;1924;48.078;11.516;2023-04-15T19:06:01;6.90;99.90
3818;DHT22;1924;48.078;11.516;2023-04-15T19:08:29;6.90;99.90
3818;DHT22;1924;48.078;11.516;2023-04-15T19:10:56;6.90;99.90
3818;DHT22;1924;48.078;11.516;2023-04-15T19:13:22;6.90;99.90
3818;DHT22;1924;48.078;11.516;2023-04-15T19:15:50;6.90;99.90
3818;DHT22;1924;48.078;11.516;2023-04-15T19:18:17;6.80;99.90
3818;DHT22;1924;48.078;11.516;2023-04-15T19:20:47;6.80;99.90
3818;DHT22;1924;48.078;11.516;2023-04-15T19:23:17;6.90;99.90
3818;DHT22;1924;48.078;11.516;2023-04-15T19:25:44;6.90;99.90
3818;DHT22;1924;48.078;11.516;2023-04-15T19:28:11;6.90;99.90
3818;DHT22;1924;48.078;11.516;2023-04-15T19:30:38;6.90;99.90
3818;DHT22;1924;48.078;11.516;2023-04-15T19:33:05;6.80;99.90
3818;DHT22;1924;48.078;11.516;2023-04-15T19:35:32;6.80;99.90
3818;DHT22;1924;48.078;11.516;2023-04-15T19:37:59;6.80;99.90
3818;DHT22;1924;48.078;11.516;2023-04-15T19:40:27;6.80;99.90
3818;DHT22;1924;48.078;11.516;2023-04-15T19:42:53;6.80;99.90
3818;DHT22;1924;48.078;11.516;2023-04-15T19:45:20;6.80;99.90
3818;DHT22;1924;48.078;11.516;2023-04-15T19:47:47;6.80;99.90
3818;DHT22;1924;48.078;11.516;2023-04-15T19:50:14;6.90;99.90
3818;DHT22;1924;48.078;11.516;2023-04-15T19:52:41;6.80;99.90
3818;DHT22;1924;48.078;11.516;2023-04-15T19:55:08;6.80;99.90
3818;DHT22;1924;48.078;11.516;2023-04-15T19:57:36;6.90;99.90
3818;DHT22;1924;48.078;11.516;2023-04-15T20:00:03;6.80;99.90
3818;DHT22;1924;48.078;11.516;2023-04-15T20:02:31;6.80;99.90
3818;DHT22;1924;48.078;11.516;2023-04-15T20:04:58;6.80;99.90
3818;DHT22;1924;48.078;11.516;2023-04-15T20:07:24;6.80;99.90
3818;DHT22;1924;48.078;11.516;2023-04-15T20:09:51;6.80;99.90
3818;DHT22;1924;48.078;11.516;2023-04-15T20:12:18;6.90;99.90
3818;DHT22;1924;48.078;11.516;2023-04-15T20:14:46;6.90;99.90
3818;DHT22;1924;48.078;11.516;2023-04-15T20:17:13;6.90;99.90
3818;DHT22;1924;48.078;11.516;2023-04-15T20:19:40;6.90;99.90
3818;DHT22;1924;48.078;11.516;2023-04-15T20:22:07;6.80;99.90
3818;DHT22;1924;48.078;11.516;2023-04-15T20:24:33;6.80;99.90
3818;DHT22;1924;48.078;11.516;2023-04-15T20:27:03;6.80;99.90
3818;DHT22;1924;48.078;11.516;2023-04-15T20:29:29;6.80;99.90
3818;DHT22;1924;48.078;11.516;2023-04-15T20:31:57;6.90;99.90
3818;DHT22;1924;48.078;11.516;2023-04-15T20:34:24;6.90;99.90
3818;DHT22;1924;48.078;11.516;2023-04-15T20:36:51;6.90;99.90
3818;DHT22;1924;48.078;11.516;2023-04-15T20:39:18;6.90;99.90
3818;DHT22;1924;48.078;11.516;2023-04-15T20:41:45;6.80;99.90
3818;DHT22;1924;48.078;11.516;2023-04-15T20:44:11;6.90;99.90
3818;DHT22;1924;48.078;11.516;2023-04-15T20:46:38;6.80;99.90
3818;DHT22;1924;48.078;11.516;2023-04-15T20:49:06;6.90;99.90
3818;DHT22;1924;48.078;11.516;2023-04-15T20:51:33;6.90;99.90
3818;DHT22;1924;48.078;11.516;2023-04-15T20:54:02;6.90;99.90
3818;DHT22;1924;48.078;11.516;2023-04-15T20:56:29;6.90;99.90
3818;DHT22;1924;48.078;11.516;2023-04-15T20:58:55;6.90;99.90
3818;DHT22;1924;48.078;11.516;2023-04-15T21:01:22;6.80;99.90
3818;DHT22;1924;48.078;11.516;2023-04-15T21:03:49;6.80;99.90
3818;DHT22;1924;48.078;11.516;2023-04-15T21:06:17;6.80;99.90
3818;DHT22;1924;48.078;11.516;2023-04-15T21:08:43;6.80;99.90
3818;DHT22;1924;48.078;11.516;2023-04-15T21:11:10;6.80;99.90
3818;DHT22;1924;48.078;11.516;2023-04-15T21:13:37;6.80;99.90
3818;DHT22;1924;48.078;11.516;2023-04-15T21:16:04;6.80;99.90
3818;DHT22;1924;48.078;11.516;2023-04-15T21:18:31;6.70;99.90
3818;DHT22;1924;48.078;11.516;2023-04-15T21:20:58;6.80;99.90
3818;DHT22;1924;48.078;11.516;2023-04-15T21:23:26;6.70;99.90
3818;DHT22;1924;48.078;11.516;2023-04-15T21:25:54;6.80;99.90
3818;DHT22;1924;48.078;11.516;2023-04-15T21:28:21;6.80;99.90
3818;DHT22;1924;48.078;11.516;2023-04-15T21:30:47;6.70;99.90
3818;DHT22;1924;48.078;11.516;2023-04-15T21:33:15;6.70;99.90
3818;DHT22;1924;48.078;11.516;2023-04-15T21:35:41;6.70;99.90
3818;DHT22;1924;48.078;11.516;2023-04-15T21:38:08;6.60;99.90
3818;DHT22;1924;48.078;11.516;2023-04-15T21:40:37;6.40;99.90
3818;DHT22;1924;48.078;11.516;2023-04-15T21:43:05;6.50;99.90
3818;DHT22;1924;48.078;11.516;2023-04-15T21:45:31;6.50;99.90
3818;DHT22;1924;48.078;11.516;2023-04-15T21:47:58;6.50;99.90
3818;DHT22;1924;48.078;11.516;2023-04-15T21:50:25;6.50;99.90
3818;DHT22;1924;48.078;11.516;2023-04-15T21:52:53;6.50;99.90
3818;DHT22;1924;48.078;11.516;2023-04-15T21:55:20;6.50;99.90
3818;DHT22;1924;48.078;11.516;2023-04-15T21:57:48;6.40;99.90
3818;DHT22;1924;48.078;11.516;2023-04-15T22:00:15;6.50;99.90
3818;DHT22;1924;48.078;11.516;2023-04-15T22:02:42;6.50;99.90
3818;DHT22;1924;48.078;11.516;2023-04-15T22:05:09;6.40;99.90
3818;DHT22;1924;48.078;11.516;2023-04-15T22:07:35;6.50;99.90
3818;DHT22;1924;48.078;11.516;2023-04-15T22:10:03;6.50;99.90
3818;DHT22;1924;48.078;11.516;2023-04-15T22:12:29;6.50;99.90
3818;DHT22;1924;48.078;11.516;2023-04-15T22:14:58;6.50;99.90
3818;DHT22;1924;48.078;11.516;2023-04-15T22:17:24;6.50;99.90
3818;DHT22;1924;48.078;11.516;2023-04-15T22:19:52;6.50;99.90
3818;DHT22;1924;48.078;11.516;2023-04-15T22:22:18;6.50;99.90
3818;DHT22;1924;48.078;11.516;2023-04-15T22:24:45;6.40;99.90
3818;DHT22;1924;48.078;11.516;2023-04-15T22:27:12;6.40;99.90
3818;DHT22;1924;48.078;11.516;2023-04-15T22:29:38;6.50;99.90
3818;DHT22;1924;48.078;11.516;2023-04-15T22:32:07;6.50;99.90
3818;DHT22;1924;48.078;11.516;2023-04-15T22:34:34;6.40;99.90